Time;durP1;ratioP1;P1;durP2;ratioP2;P2;SDS_P1;SDS_P2;PMS_P1;PMS_P2;Temp;Humidity;BMP_temperature;BMP_pressure;BME280_temperature;BME280_humidity;BME280_pressure;Samples;Min_cycle;Max_cycle;Signal;HPM_P1;HPM_P2
2022/06/08 00:00:34;;;;;;;19.38;13.38;;;13.10;99.90;;;;;;4964043;28;20153;-72
2022/06/08 00:03:11;;;;;;;15.77;14.18;;;13.00;99.90;;;;;;4982301;28;20073;-69
2022/06/08 00:05:38;;;;;;;16.70;14.95;;;13.00;99.90;;;;;;4983892;28;20054;-68
2022/06/08 00:08:05;;;;;;;15.52;13.88;;;12.90;99.90;;;;;;4982222;28;20060;-70
2022/06/08 00:10:34;;;;;;;14.77;13.32;;;12.90;99.90;;;;;;4980777;28;20057;-70
2022/06/08 00:13:01;;;;;;;16.13;14.43;;;12.80;99.90;;;;;;4983079;28;20138;-73
2022/06/08 00:15:28;;;;;;;15.60;13.73;;;12.80;99.90;;;;;;4982453;28;20168;-70
2022/06/08 00:17:56;;;;;;;16.00;14.50;;;12.80;99.90;;;;;;4983969;28;20610;-71
2022/06/08 00:20:23;;;;;;;14.77;13.48;;;12.70;99.90;;;;;;4983930;28;20150;-72
2022/06/08 00:22:53;;;;;;;15.30;13.60;;;12.70;99.90;;;;;;4985562;28;20077;-70
2022/06/08 00:25:20;;;;;;;16.53;13.87;;;12.70;99.90;;;;;;4982976;28;20432;-72
2022/06/08 00:27:47;;;;;;;14.32;12.82;;;12.60;99.90;;;;;;4972120;28;20093;-71
2022/06/08 00:30:14;;;;;;;16.08;14.43;;;12.60;99.90;;;;;;4961585;28;21555;-67
2022/06/08 00:32:43;;;;;;;15.52;14.02;;;12.60;99.90;;;;;;4942717;28;20144;-73
2022/06/08 00:35:10;;;;;;;14.70;13.30;;;12.60;99.90;;;;;;4962103;28;20051;-68
2022/06/08 00:37:37;;;;;;;15.75;14.18;;;12.50;99.90;;;;;;4962943;28;20126;-69
2022/06/08 00:40:06;;;;;;;13.45;12.10;;;12.50;99.90;;;;;;4963764;28;20165;-71
2022/06/08 00:42:33;;;;;;;19.02;12.40;;;12.40;99.90;;;;;;4958184;28;20074;-71
2022/06/08 00:45:07;;;;;;;14.95;13.35;;;12.40;99.90;;;;;;4960835;28;20050;-68
2022/06/08 00:47:42;;;;;;;14.77;13.38;;;12.40;99.90;;;;;;4960393;28;21760;-71
2022/06/08 00:50:26;;;;;;;14.13;12.75;;;12.40;99.90;;;;;;4961923;28;20888;-71
2022/06/08 00:52:54;;;;;;;16.65;15.05;;;12.40;99.90;;;;;;4944639;28;20050;-71
2022/06/08 00:55:26;;;;;;;13.45;12.15;;;12.30;99.90;;;;;;4961548;28;20062;-67
2022/06/08 00:57:58;;;;;;;17.85;14.45;;;12.30;99.90;;;;;;4960977;28;20166;-71
2022/06/08 01:00:32;;;;;;;14.60;13.20;;;12.30;99.90;;;;;;4959110;28;20081;-73
2022/06/08 01:02:59;;;;;;;13.82;12.55;;;12.30;99.90;;;;;;4959711;28;20054;-70
2022/06/08 01:05:47;;;;;;;17.65;13.75;;;12.30;99.90;;;;;;4947276;28;20142;-71
2022/06/08 01:08:21;;;;;;;14.40;13.02;;;12.30;99.90;;;;;;4959484;28;20088;-68
2022/06/08 01:10:52;;;;;;;13.32;11.93;;;12.30;99.90;;;;;;4946166;28;20699;-73
2022/06/08 01:13:21;;;;;;;11.45;10.35;;;12.30;99.90;;;;;;4947302;28;20065;-70
2022/06/08 01:15:50;;;;;;;13.05;11.65;;;12.30;99.90;;;;;;4961432;28;20058;-74
2022/06/08 01:18:20;;;;;;;13.45;12.18;;;12.30;99.90;;;;;;4946052;28;20072;-74
2022/06/08 01:20:52;;;;;;;16.33;11.65;;;12.20;99.90;;;;;;4946721;28;20055;-68
2022/06/08 01:23:23;;;;;;;12.80;11.50;;;12.20;99.90;;;;;;4946356;28;20214;-73
2022/06/08 01:26:09;;;;;;;13.65;12.35;;;12.10;99.90;;;;;;4960783;28;20058;-70
2022/06/08 01:29:04;;;;;;;11.25;10.15;;;12.10;99.90;;;;;;4974789;28;20514;-72
2022/06/08 01:31:57;;;;;;;12.45;10.25;;;12.10;99.90;;;;;;4979965;28;20046;-72
2022/06/08 01:34:59;;;;;;;11.00;10.00;;;12.10;99.90;;;;;;4966292;28;20097;-68
2022/06/08 01:37:54;;;;;;;11.68;10.57;;;12.10;99.90;;;;;;4975998;28;20075;-70
2022/06/08 01:40:42;;;;;;;11.57;10.45;;;12.10;99.90;;;;;;4981703;28;20526;-70
2022/06/08 01:43:15;;;;;;;9.27;8.38;;;12.10;99.90;;;;;;4985081;28;20121;-70
2022/06/08 01:45:53;;;;;;;10.68;9.68;;;12.20;99.90;;;;;;4996902;28;20072;-70
2022/06/08 01:48:32;;;;;;;11.55;10.50;;;12.20;99.90;;;;;;4981258;28;20062;-71
2022/06/08 01:51:38;;;;;;;9.90;8.90;;;12.10;99.90;;;;;;4982706;28;20054;-70
2022/06/08 01:54:22;;;;;;;10.60;9.60;;;12.10;99.90;;;;;;4966809;28;20058;-70
2022/06/08 01:57:08;;;;;;;10.70;9.70;;;12.10;99.90;;;;;;4947914;28;20139;-72
2022/06/08 01:59:51;;;;;;;10.70;9.80;;;12.10;99.90;;;;;;4962156;28;20046;-73
2022/06/08 02:02:17;;;;;;;10.55;8.90;;;12.10;99.90;;;;;;4960966;28;20050;-72
2022/06/08 02:05:13;;;;;;;11.40;10.35;;;12.10;99.90;;;;;;4974116;28;20057;-71
2022/06/08 02:07:52;;;;;;;9.32;8.32;;;12.10;99.90;;;;;;4983160;28;20057;-69
2022/06/08 02:10:26;;;;;;;9.07;8.27;;;12.10;99.90;;;;;;4994958;28;20050;-72
2022/06/08 02:12:59;;;;;;;8.50;7.70;;;12.10;99.90;;;;;;4965513;28;20108;-73
2022/06/08 02:15:46;;;;;;;9.20;7.95;;;12.10;99.90;;;;;;4965922;28;20058;-71
2022/06/08 02:18:46;;;;;;;7.88;7.28;;;12.10;99.90;;;;;;4963512;28;20046;-71
2022/06/08 02:21:23;;;;;;;8.25;7.55;;;12.10;99.90;;;;;;4984165;28;20065;-69
2022/06/08 02:24:09;;;;;;;8.38;7.68;;;12.00;99.90;;;;;;4967982;28;20054;-69
2022/06/08 02:26:43;;;;;;;7.82;7.13;;;12.00;99.90;;;;;;4953639;28;20112;-69
2022/06/08 02:29:17;;;;;;;8.68;7.97;;;12.00;99.90;;;;;;4982531;28;20045;-72
2022/06/08 02:31:53;;;;;;;8.57;7.88;;;12.00;99.90;;;;;;4963751;28;20780;-69
2022/06/08 02:34:36;;;;;;;8.35;7.60;;;12.00;99.90;;;;;;4997440;28;20050;-69
2022/06/08 02:37:19;;;;;;;8.93;8.23;;;12.10;99.90;;;;;;4951827;28;20109;-70
2022/06/08 02:39:55;;;;;;;7.40;6.85;;;12.10;99.90;;;;;;4978061;28;20042;-71
2022/06/08 02:42:27;;;;;;;8.43;7.72;;;12.20;99.90;;;;;;4998604;28;20053;-70
2022/06/08 02:44:59;;;;;;;8.73;8.00;;;12.20;99.90;;;;;;4999720;28;20533;-73
2022/06/08 02:47:30;;;;;;;7.72;7.03;;;12.30;99.90;;;;;;4961311;28;20137;-70
2022/06/08 02:50:18;;;;;;;8.52;7.75;;;12.40;99.90;;;;;;4969512;28;20049;-67
2022/06/08 02:52:49;;;;;;;6.82;6.32;;;12.40;99.90;;;;;;4967410;28;20050;-72
2022/06/08 02:55:43;;;;;;;7.45;6.85;;;12.50;99.90;;;;;;4999655;28;20120;-69
2022/06/08 02:58:28;;;;;;;6.57;6.05;;;12.50;99.90;;;;;;4987992;28;20049;-70
2022/06/08 03:01:05;;;;;;;8.02;5.97;;;12.70;99.90;;;;;;4967364;28;20184;-72
2022/06/08 03:03:57;;;;;;;7.40;6.68;;;12.70;99.90;;;;;;4956968;28;20061;-68
2022/06/08 03:06:31;;;;;;;7.35;6.72;;;12.80;99.90;;;;;;4957541;28;20163;-69
2022/06/08 03:09:02;;;;;;;8.20;5.70;;;12.90;99.90;;;;;;4986908;28;20164;-70
2022/06/08 03:11:40;;;;;;;6.78;6.28;;;12.90;99.90;;;;;;4960550;28;20056;-73
2022/06/08 03:14:11;;;;;;;6.43;5.93;;;12.90;99.90;;;;;;4987412;28;20061;-69
2022/06/08 03:16:41;;;;;;;6.22;5.63;;;13.00;99.90;;;;;;4965844;28;20270;-74
2022/06/08 03:19:11;;;;;;;5.55;5.05;;;13.00;99.90;;;;;;4969232;28;20050;-70
2022/06/08 03:21:40;;;;;;;5.57;5.03;;;13.10;99.90;;;;;;4968509;28;21398;-68
2022/06/08 03:24:07;;;;;;;6.10;5.55;;;13.10;99.90;;;;;;4983224;28;20085;-70
2022/06/08 03:26:43;;;;;;;5.65;5.25;;;13.20;99.90;;;;;;4983316;28;21063;-74
2022/06/08 03:29:12;;;;;;;5.63;5.13;;;13.20;99.90;;;;;;4968588;28;20136;-71
2022/06/08 03:31:39;;;;;;;5.18;4.78;;;13.30;99.90;;;;;;4996239;28;20058;-69
2022/06/08 03:34:06;;;;;;;5.60;5.18;;;13.30;99.90;;;;;;4967735;28;20073;-68
2022/06/08 03:36:34;;;;;;;5.05;4.65;;;13.40;99.90;;;;;;4996256;28;20134;-70
2022/06/08 03:39:03;;;;;;;4.43;4.03;;;13.40;99.90;;;;;;4967916;28;21293;-69
2022/06/08 03:41:32;;;;;;;5.90;3.78;;;13.50;99.90;;;;;;4967655;28;20191;-70
2022/06/08 03:44:00;;;;;;;4.30;4.00;;;13.50;99.90;;;;;;4968580;28;20078;-71
2022/06/08 03:46:28;;;;;;;4.43;4.07;;;13.50;99.90;;;;;;4984610;28;20155;-67
2022/06/08 03:48:57;;;;;;;6.03;5.32;;;13.50;99.90;;;;;;4986278;28;20065;-73
2022/06/08 03:51:24;;;;;;;4.93;4.53;;;13.60;99.90;;;;;;4985297;28;20400;-71
2022/06/08 03:54:00;;;;;;;5.03;4.50;;;13.60;99.90;;;;;;4985081;28;20069;-70
2022/06/08 03:56:30;;;;;;;4.95;4.55;;;13.60;99.90;;;;;;4981346;28;20108;-68
2022/06/08 03:58:57;;;;;;;4.07;3.80;;;13.60;99.90;;;;;;4997550;28;20050;-70
2022/06/08 04:01:27;;;;;;;4.45;3.90;;;13.70;99.90;;;;;;4967884;28;20049;-72
2022/06/08 04:03:58;;;;;;;4.63;4.22;;;13.70;99.90;;;;;;4998014;28;20054;-71
2022/06/08 04:06:28;;;;;;;;;;;13.80;99.90;;;;;;4983662;28;20244;-71
2022/06/08 04:08:56;;;;;;;6.35;5.03;;;13.80;99.90;;;;;;4967199;28;19929;-70
2022/06/08 04:11:25;;;;;;;5.32;4.93;;;14.00;99.90;;;;;;4969610;28;20500;-71
2022/06/08 04:13:56;;;;;;;5.45;5.05;;;14.00;99.90;;;;;;4967736;28;20149;-74
2022/06/08 04:16:23;;;;;;;5.50;4.53;;;14.10;99.90;;;;;;4957866;28;20056;-70
2022/06/08 04:18:50;;;;;;;4.20;3.42;;;14.20;99.90;;;;;;4968118;28;20057;-72
2022/06/08 04:21:19;;;;;;;4.30;3.40;;;14.20;99.90;;;;;;4967062;28;20104;-70
2022/06/08 04:23:56;;;;;;;5.53;3.75;;;14.30;99.90;;;;;;4983369;28;20053;-71
2022/06/08 04:26:26;;;;;;;4.63;3.60;;;14.30;99.90;;;;;;4966012;28;21562;-72
2022/06/08 04:29:00;;;;;;;4.88;4.47;;;14.40;99.90;;;;;;4966847;28;20058;-72
2022/06/08 04:31:30;;;;;;;4.28;3.97;;;14.40;99.90;;;;;;4966585;28;20057;-69
2022/06/08 04:34:05;;;;;;;5.88;4.82;;;14.50;99.90;;;;;;4983034;28;20052;-73
2022/06/08 04:36:35;;;;;;;3.80;3.50;;;14.60;99.90;;;;;;4963390;28;21627;-73
2022/06/08 04:39:05;;;;;;;3.88;3.58;;;14.70;99.90;;;;;;4966688;28;20687;-68
2022/06/08 04:41:36;;;;;;;3.05;2.85;;;14.70;99.90;;;;;;4984272;28;20049;-70
2022/06/08 04:44:04;;;;;;;3.77;3.47;;;14.80;99.90;;;;;;4985123;28;20152;-70
2022/06/08 04:46:33;;;;;;;3.67;3.37;;;14.80;99.90;;;;;;4953773;28;20311;-70
2022/06/08 04:49:03;;;;;;;3.00;2.80;;;14.80;99.90;;;;;;4966319;28;20310;-71
2022/06/08 04:51:33;;;;;;;3.55;2.80;;;14.70;99.90;;;;;;4964904;28;20050;-71
2022/06/08 04:54:01;;;;;;;;;;;14.80;99.90;;;;;;4981793;28;20057;-71
2022/06/08 04:56:31;;;;;;;3.92;3.10;;;14.80;99.90;;;;;;4965218;28;20325;-69
2022/06/08 04:58:59;;;;;;;3.70;2.47;;;14.90;99.90;;;;;;4965794;28;20499;-73
2022/06/08 05:01:30;;;;;;;3.22;3.03;;;14.90;99.90;;;;;;4966500;28;20698;-69
2022/06/08 05:03:58;;;;;;;3.30;3.10;;;14.90;99.90;;;;;;4981515;28;20049;-72
2022/06/08 05:06:26;;;;;;;3.20;2.92;;;14.90;99.90;;;;;;4961819;28;20056;-69
2022/06/08 05:08:53;;;;;;;4.20;3.10;;;14.90;99.90;;;;;;4995440;28;20065;-71
2022/06/08 05:11:24;;;;;;;3.33;2.90;;;14.90;99.90;;;;;;4988032;28;20057;-70
2022/06/08 05:13:52;;;;;;;3.38;3.13;;;15.00;99.90;;;;;;4966899;28;20060;-67
2022/06/08 05:16:19;;;;;;;4.10;3.80;;;15.00;99.90;;;;;;4963837;28;20197;-72
2022/06/08 05:18:50;;;;;;;4.43;3.78;;;15.00;99.90;;;;;;4969665;28;20060;-74
2022/06/08 05:21:19;;;;;;;3.50;3.05;;;15.00;99.90;;;;;;4966666;28;20216;-69
2022/06/08 05:23:49;;;;;;;3.05;2.85;;;15.10;99.90;;;;;;4984242;28;20057;-69
2022/06/08 05:26:22;;;;;;;3.05;2.85;;;15.10;99.90;;;;;;4965202;28;20074;-69
2022/06/08 05:28:50;;;;;;;3.25;3.00;;;15.20;99.90;;;;;;4979944;28;20053;-68
2022/06/08 05:31:17;;;;;;;3.80;3.50;;;15.30;99.90;;;;;;4965616;28;20049;-72
2022/06/08 05:33:48;;;;;;;3.30;3.03;;;15.40;99.90;;;;;;4966637;28;20050;-71
2022/06/08 05:36:20;;;;;;;3.72;3.42;;;15.50;99.90;;;;;;4963263;28;20060;-71
2022/06/08 05:38:51;;;;;;;3.63;3.38;;;15.50;99.90;;;;;;4981058;28;20061;-71
2022/06/08 05:41:23;;;;;;;4.85;2.78;;;15.60;99.90;;;;;;4964961;28;20057;-72
2022/06/08 05:43:50;;;;;;;5.07;3.30;;;15.80;99.90;;;;;;4981865;28;20164;-73
2022/06/08 05:46:18;;;;;;;3.08;2.78;;;15.80;99.90;;;;;;4964289;28;20050;-72
2022/06/08 05:48:48;;;;;;;2.85;2.65;;;15.80;99.90;;;;;;4965918;28;20081;-71
2022/06/08 05:51:15;;;;;;;5.07;3.53;;;15.90;99.90;;;;;;4967084;28;20061;-73
2022/06/08 05:53:44;;;;;;;4.63;3.63;;;15.90;99.90;;;;;;4967828;28;20149;-72
2022/06/08 05:56:12;;;;;;;3.58;3.25;;;15.90;99.90;;;;;;5000831;28;20119;-66
2022/06/08 05:58:43;;;;;;;3.35;3.13;;;16.00;99.90;;;;;;4986645;28;20068;-67
2022/06/08 06:01:10;;;;;;;3.92;3.60;;;16.00;99.90;;;;;;4970932;28;20153;-72
2022/06/08 06:03:38;;;;;;;3.80;3.53;;;16.00;99.90;;;;;;4971224;28;20061;-72
2022/06/08 06:06:05;;;;;;;3.42;3.15;;;16.10;99.90;;;;;;4988546;28;20116;-72
2022/06/08 06:08:32;;;;;;;4.28;3.58;;;16.10;99.90;;;;;;4967096;28;20824;-72
2022/06/08 06:11:05;;;;;;;4.68;3.70;;;16.10;99.90;;;;;;4970506;28;20124;-74
2022/06/08 06:13:37;;;;;;;5.70;3.83;;;16.10;99.90;;;;;;5000640;28;20065;-70
2022/06/08 06:16:08;;;;;;;3.83;2.88;;;16.10;99.90;;;;;;4969202;28;20054;-69
2022/06/08 06:18:37;;;;;;;3.85;3.30;;;16.00;99.90;;;;;;4968417;28;20173;-72
2022/06/08 06:21:17;;;;;;;3.90;3.50;;;16.00;99.90;;;;;;4969449;28;20049;-71
2022/06/08 06:23:54;;;;;;;4.38;3.97;;;16.00;99.90;;;;;;5000273;28;20141;-69
2022/06/08 06:26:40;;;;;;;4.38;3.97;;;15.90;99.90;;;;;;4985932;28;20057;-70
2022/06/08 06:29:19;;;;;;;3.97;3.60;;;15.90;99.90;;;;;;4965733;28;20242;-72
2022/06/08 06:32:28;;;;;;;3.30;3.00;;;15.90;99.90;;;;;;4952977;28;20062;-73
2022/06/08 06:34:57;;;;;;;4.22;3.90;;;15.80;99.90;;;;;;4965504;28;20066;-72
2022/06/08 06:37:26;;;;;;;3.92;3.60;;;15.80;99.90;;;;;;4934061;28;20050;-74
2022/06/08 06:39:54;;;;;;;4.50;4.07;;;15.80;99.90;;;;;;4944534;28;20070;-70
2022/06/08 06:42:27;;;;;;;4.85;3.55;;;15.90;99.90;;;;;;4948922;28;20057;-70
2022/06/08 06:45:12;;;;;;;4.30;3.10;;;16.00;99.90;;;;;;4965873;28;20073;-70
2022/06/08 06:47:43;;;;;;;3.58;3.33;;;16.10;99.90;;;;;;4946837;28;20059;-75
2022/06/08 06:50:18;;;;;;;3.47;3.25;;;16.30;99.90;;;;;;4961365;28;20085;-73
2022/06/08 06:52:47;;;;;;;3.00;2.42;;;16.40;99.90;;;;;;4946202;28;20038;-70
2022/06/08 06:55:27;;;;;;;3.08;2.88;;;16.40;99.90;;;;;;4947155;28;20090;-71
2022/06/08 06:57:58;;;;;;;13.23;4.63;;;16.50;99.90;;;;;;4946107;28;20054;-70
2022/06/08 07:00:30;;;;;;;2.95;2.65;;;16.60;99.90;;;;;;4944895;28;20130;-70
2022/06/08 07:03:00;;;;;;;3.67;3.38;;;16.60;99.90;;;;;;4940629;28;20050;-71
2022/06/08 07:05:33;;;;;;;2.75;2.40;;;16.70;99.90;;;;;;4943608;28;20051;-70
2022/06/08 07:08:02;;;;;;;3.25;2.92;;;16.70;99.90;;;;;;4942172;28;20058;-72
2022/06/08 07:10:29;;;;;;;2.75;2.55;;;16.80;99.90;;;;;;4945730;28;20625;-74
2022/06/08 07:12:56;;;;;;;3.22;2.92;;;16.90;99.90;;;;;;4964557;28;20062;-72
2022/06/08 07:15:24;;;;;;;2.65;2.05;;;17.00;99.90;;;;;;4945937;28;20155;-70
2022/06/08 07:17:53;;;;;;;2.88;2.53;;;17.00;99.90;;;;;;4963518;28;20042;-68
2022/06/08 07:20:23;;;;;;;3.20;2.10;;;17.10;99.90;;;;;;4964094;28;20050;-69
2022/06/08 07:22:52;;;;;;;3.22;2.70;;;17.20;99.90;;;;;;4946728;28;20134;-70
2022/06/08 07:25:20;;;;;;;2.20;1.98;;;17.30;99.90;;;;;;4964234;28;20206;-71
2022/06/08 07:27:47;;;;;;;2.95;2.50;;;17.30;99.90;;;;;;4973220;28;20062;-71
2022/06/08 07:30:14;;;;;;;4.00;2.70;;;17.40;99.90;;;;;;4983492;28;20045;-70
2022/06/08 07:32:41;;;;;;;3.75;2.05;;;17.50;99.90;;;;;;4983214;28;20090;-72
2022/06/08 07:35:09;;;;;;;2.70;2.50;;;17.60;99.90;;;;;;4986021;28;20202;-73
2022/06/08 07:37:36;;;;;;;2.53;2.33;;;17.70;99.90;;;;;;4983589;28;20045;-69
2022/06/08 07:40:03;;;;;;;6.43;4.43;;;17.70;99.90;;;;;;4984657;28;20061;-69
2022/06/08 07:42:30;;;;;;;2.80;2.58;;;17.70;99.90;;;;;;4982837;28;20780;-71
2022/06/08 07:44:57;;;;;;;4.38;3.00;;;17.70;99.90;;;;;;4983448;28;20050;-68
2022/06/08 07:47:24;;;;;;;2.05;1.95;;;17.80;99.90;;;;;;4984906;28;20401;-72
2022/06/08 07:49:51;;;;;;;3.45;2.22;;;17.90;99.90;;;;;;4985979;28;20061;-73
2022/06/08 07:52:21;;;;;;;2.15;2.05;;;17.90;99.90;;;;;;4982284;28;20053;-70
2022/06/08 07:54:49;;;;;;;3.47;2.50;;;18.00;99.90;;;;;;4984780;28;20050;-70
2022/06/08 07:57:20;;;;;;;2.97;2.67;;;18.00;99.90;;;;;;4984786;28;20156;-73
2022/06/08 07:59:48;;;;;;;5.15;2.83;;;18.10;99.90;;;;;;4986470;28;20068;-69
2022/06/08 08:02:15;;;;;;;2.42;2.17;;;18.10;99.90;;;;;;4980691;28;20050;-67
2022/06/08 08:04:43;;;;;;;2.13;1.95;;;18.10;99.90;;;;;;4982254;28;20072;-74
2022/06/08 08:07:12;;;;;;;1.98;1.85;;;18.20;99.90;;;;;;4966415;28;20065;-71
2022/06/08 08:09:39;;;;;;;3.45;2.17;;;18.30;99.90;;;;;;4985357;28;20623;-72
2022/06/08 08:12:07;;;;;;;3.90;2.35;;;18.30;99.90;;;;;;4984338;28;20083;-73
2022/06/08 08:14:34;;;;;;;2.70;2.33;;;18.30;99.90;;;;;;4982256;28;20201;-71
2022/06/08 08:17:04;;;;;;;2.15;2.05;;;18.40;99.90;;;;;;4985954;28;20051;-69
2022/06/08 08:19:32;;;;;;;4.93;2.33;;;18.50;99.90;;;;;;4981482;28;20050;-69
2022/06/08 08:22:00;;;;;;;3.42;2.50;;;18.50;99.90;;;;;;4982817;28;20073;-72
2022/06/08 08:24:27;;;;;;;3.13;2.00;;;18.60;99.90;;;;;;4982411;28;20059;-69
2022/06/08 08:26:56;;;;;;;2.90;2.60;;;18.70;99.90;;;;;;4985194;28;20081;-68
2022/06/08 08:29:23;;;;;;;3.00;2.25;;;18.70;99.90;;;;;;4985215;28;20495;-67
2022/06/08 08:31:50;;;;;;;2.55;2.35;;;18.90;99.90;;;;;;4985134;28;20058;-69
2022/06/08 08:34:17;;;;;;;3.75;1.95;;;19.00;99.90;;;;;;4983644;28;20503;-72
2022/06/08 08:36:45;;;;;;;2.50;1.98;;;19.20;99.90;;;;;;4983092;28;20053;-72
2022/06/08 08:39:12;;;;;;;2.13;2.00;;;19.20;99.90;;;;;;4984801;28;20046;-69
2022/06/08 08:44:43;;;;;;;2.40;2.20;;;19.30;99.90;;;;;;4983944;28;20430;-72
2022/06/08 08:47:25;;;;;;;3.22;2.13;;;19.30;99.90;;;;;;4983319;28;20723;-70
2022/06/08 08:49:59;;;;;;;1.88;1.63;;;19.20;99.90;;;;;;4984097;28;20862;-72
2022/06/08 08:52:47;;;;;;;1.63;1.52;;;19.20;99.90;;;;;;4980781;28;20709;-69
2022/06/08 08:55:42;;;;;;;2.60;2.33;;;19.30;99.90;;;;;;4981948;28;20074;-74
2022/06/08 08:58:17;;;;;;;1.85;1.50;;;19.20;99.90;;;;;;4965769;28;20057;-71
2022/06/08 09:01:19;;;;;;;4.82;2.25;;;19.10;99.90;;;;;;4981495;28;20050;-70
2022/06/08 09:03:56;;;;;;;2.08;1.88;;;19.10;99.90;;;;;;4978703;28;20137;-74
2022/06/08 09:06:29;;;;;;;2.40;1.50;;;19.10;99.90;;;;;;4980764;28;20046;-68
2022/06/08 09:09:00;;;;;;;1.98;1.58;;;19.10;99.90;;;;;;4982467;28;20046;-73
2022/06/08 09:11:35;;;;;;;2.13;1.50;;;19.20;99.90;;;;;;4983490;28;20054;-73
2022/06/08 09:14:13;;;;;;;1.58;1.48;;;19.30;99.90;;;;;;4981787;28;20085;-71
2022/06/08 09:16:45;;;;;;;1.80;1.13;;;19.40;99.90;;;;;;4980764;28;20045;-73
2022/06/08 09:19:36;;;;;;;1.20;1.15;;;19.40;99.90;;;;;;4966355;28;20057;-70
2022/06/08 09:22:03;;;;;;;4.53;1.55;;;19.40;99.90;;;;;;4983368;28;20111;-73
2022/06/08 09:24:30;;;;;;;0.75;0.75;;;19.50;99.90;;;;;;4980795;28;20077;-74
2022/06/08 09:27:22;;;;;;;2.55;1.00;;;19.70;99.90;;;;;;4983708;28;20057;-73
2022/06/08 09:29:51;;;;;;;3.10;0.82;;;19.50;99.90;;;;;;4988204;28;20062;-73
2022/06/08 09:32:49;;;;;;;1.90;1.40;;;19.40;99.90;;;;;;4984330;28;20073;-71
2022/06/08 09:35:39;;;;;;;1.20;0.98;;;19.40;99.90;;;;;;4987090;28;20162;-71
2022/06/08 09:38:13;;;;;;;0.80;0.75;;;19.40;99.90;;;;;;4968820;28;20637;-71
2022/06/08 09:40:45;;;;;;;5.53;0.80;;;19.50;99.90;;;;;;4986832;28;20164;-70
2022/06/08 09:43:33;;;;;;;2.47;1.40;;;19.70;99.90;;;;;;4987911;28;20061;-72
2022/06/08 09:46:10;;;;;;;1.45;0.70;;;19.70;99.90;;;;;;4989804;28;20057;-68
2022/06/08 09:52:04;;;;;;;0.90;0.55;;;19.50;99.90;;;;;;4987281;28;20143;-71
2022/06/08 09:55:04;;;;;;;0.77;0.50;;;19.50;99.90;;;;;;4985599;28;21280;-71
2022/06/08 09:57:31;;;;;;;1.20;0.70;;;19.60;99.90;;;;;;4981307;28;20062;-70
2022/06/08 10:00:26;;;;;;;1.25;0.73;;;19.70;99.90;;;;;;4979816;28;20197;-70
2022/06/08 10:03:10;;;;;;;0.60;0.50;;;19.80;99.90;;;;;;4982542;28;20867;-71
2022/06/08 10:05:56;;;;;;;5.18;1.05;;;20.10;99.90;;;;;;4980745;28;20045;-75
2022/06/08 10:08:55;;;;;;;1.65;0.47;;;20.10;99.90;;;;;;4985234;28;20077;-71
2022/06/08 10:11:37;;;;;;;0.40;0.37;;;20.00;99.90;;;;;;4967465;28;20081;-71
2022/06/08 10:14:20;;;;;;;1.77;0.52;;;19.80;99.90;;;;;;4985632;28;20038;-70
2022/06/08 10:16:59;;;;;;;0.50;0.30;;;19.70;99.90;;;;;;4983691;28;20171;-72
2022/06/08 10:19:32;;;;;;;1.77;0.73;;;19.70;99.90;;;;;;4984884;28;20046;-70
2022/06/08 10:22:01;;;;;;;2.22;0.68;;;19.70;99.90;;;;;;4984386;28;20057;-71
2022/06/08 10:24:47;;;;;;;0.60;0.52;;;19.70;99.90;;;;;;4984218;28;20061;-72
2022/06/08 10:27:20;;;;;;;0.90;0.50;;;19.90;99.90;;;;;;4985554;28;20057;-69
2022/06/08 10:30:15;;;;;;;0.57;0.57;;;19.90;99.90;;;;;;4972350;28;20173;-71
2022/06/08 10:32:47;;;;;;;1.13;0.73;;;19.90;99.90;;;;;;4952780;28;20964;-70
2022/06/08 10:35:39;;;;;;;0.50;0.50;;;19.80;99.90;;;;;;4955271;28;20056;-71
2022/06/08 10:38:15;;;;;;;3.05;0.80;;;19.80;99.90;;;;;;4970477;28;20061;-72
2022/06/08 10:41:01;;;;;;;0.50;0.45;;;19.90;99.90;;;;;;4963839;28;20058;-70
2022/06/08 10:43:34;;;;;;;5.05;1.10;;;19.90;99.90;;;;;;4965695;28;20087;-75
2022/06/08 10:46:25;;;;;;;4.30;1.25;;;19.90;99.90;;;;;;4967007;28;22120;-73
2022/06/08 10:48:52;;;;;;;1.05;0.93;;;20.10;99.90;;;;;;4974579;28;20049;-69
2022/06/08 10:51:22;;;;;;;1.50;1.13;;;20.30;99.90;;;;;;4970769;28;20828;-69
2022/06/08 10:56:56;;;;;;;1.10;1.00;;;20.40;99.90;;;;;;4968968;28;20073;-69
2022/06/08 10:59:30;;;;;;;1.25;1.00;;;20.50;99.90;;;;;;4954368;28;20058;-74
2022/06/08 11:02:10;;;;;;;1.60;1.27;;;20.50;99.90;;;;;;4967818;28;20468;-72
2022/06/08 11:04:51;;;;;;;3.45;2.55;;;20.30;99.90;;;;;;4966878;28;20078;-69
2022/06/08 11:07:19;;;;;;;;;;;20.40;99.90;;;;;;4967109;28;20132;-69
2022/06/08 11:09:59;;;;;;;2.17;1.48;;;20.30;99.90;;;;;;4977161;28;19965;-71
2022/06/08 11:12:44;;;;;;;2.13;1.83;;;20.10;99.90;;;;;;4963627;28;20281;-67
2022/06/08 11:15:34;;;;;;;1.13;1.02;;;20.10;99.90;;;;;;4964523;28;21218;-67
2022/06/08 11:18:08;;;;;;;;;;;20.20;99.90;;;;;;4967402;28;20074;-70
2022/06/08 11:20:37;;;;;;;1.42;1.30;;;20.30;99.90;;;;;;4963425;28;19981;-73
2022/06/08 11:23:12;;;;;;;4.38;1.35;;;20.30;99.90;;;;;;4963798;28;20094;-71
2022/06/08 11:25:52;;;;;;;3.00;1.17;;;20.30;99.90;;;;;;4966317;28;20132;-67
2022/06/08 11:28:29;;;;;;;2.03;1.20;;;20.50;99.90;;;;;;4961483;28;20055;-74
2022/06/08 11:31:29;;;;;;;3.55;1.30;;;20.50;99.90;;;;;;4965720;28;20176;-68
2022/06/08 11:34:04;;;;;;;2.03;1.38;;;20.50;99.90;;;;;;4917153;28;20047;-71
2022/06/08 11:36:49;;;;;;;1.98;1.27;;;20.30;99.90;;;;;;4963536;28;20069;-74
2022/06/08 11:39:51;;;;;;;1.80;1.27;;;20.30;99.90;;;;;;4963941;28;21447;-69
2022/06/08 11:42:35;;;;;;;2.47;1.15;;;20.40;99.90;;;;;;4964041;28;20468;-74
2022/06/08 11:45:38;;;;;;;0.90;0.90;;;20.40;99.90;;;;;;4964964;28;20173;-70
2022/06/08 11:48:16;;;;;;;4.13;1.17;;;20.30;99.90;;;;;;4955706;28;20046;-68
2022/06/08 11:50:50;;;;;;;3.60;1.40;;;20.40;99.90;;;;;;4961485;28;20054;-74
2022/06/08 11:53:39;;;;;;;0.82;0.82;;;20.50;99.90;;;;;;4979060;28;20066;-73
2022/06/08 11:56:06;;;;;;;1.25;1.13;;;20.60;99.90;;;;;;4966132;28;20050;-72
2022/06/08 11:58:35;;;;;;;2.13;1.42;;;20.80;99.90;;;;;;4961774;28;20053;-76
2022/06/08 12:01:15;;;;;;;2.53;0.82;;;20.60;99.90;;;;;;4948781;28;20544;-70
2022/06/08 12:03:45;;;;;;;1.20;1.08;;;20.70;99.90;;;;;;4967201;28;20054;-74
2022/06/08 12:06:14;;;;;;;2.88;0.95;;;20.80;99.90;;;;;;4946508;28;20050;-70
2022/06/08 12:08:49;;;;;;;2.85;1.65;;;20.80;99.90;;;;;;4963322;28;20058;-74
2022/06/08 12:11:24;;;;;;;0.80;0.80;;;20.80;99.90;;;;;;4962259;28;20094;-68
2022/06/08 12:14:13;;;;;;;4.00;1.00;;;20.60;99.90;;;;;;4959734;28;20737;-73
2022/06/08 12:16:58;;;;;;;5.65;2.30;;;20.60;99.90;;;;;;4957944;28;20057;-73
2022/06/08 12:19:44;;;;;;;11.32;4.10;;;20.60;99.90;;;;;;4963896;28;20050;-71
2022/06/08 12:22:29;;;;;;;3.15;1.50;;;20.60;99.90;;;;;;4963839;28;20058;-71
2022/06/08 12:25:23;;;;;;;3.25;1.85;;;20.40;99.90;;;;;;4964987;28;20072;-71
2022/06/08 12:28:15;;;;;;;1.88;1.02;;;20.40;99.90;;;;;;4964099;28;20112;-73
2022/06/08 12:30:47;;;;;;;2.47;1.10;;;20.50;99.90;;;;;;4947452;28;20074;-72
2022/06/08 12:33:16;;;;;;;4.97;2.78;;;20.50;99.90;;;;;;4956440;28;20142;-73
2022/06/08 12:36:10;;;;;;;1.77;1.10;;;20.50;99.90;;;;;;4966873;28;20057;-71
2022/06/08 12:38:57;;;;;;;4.10;1.73;;;20.60;99.90;;;;;;4963115;28;20065;-69
2022/06/08 12:41:57;;;;;;;6.68;1.42;;;20.50;99.90;;;;;;4963703;28;20058;-71
2022/06/08 12:44:28;;;;;;;2.97;1.90;;;20.80;99.90;;;;;;4963391;28;20098;-69
2022/06/08 12:46:59;;;;;;;4.38;0.95;;;20.70;99.90;;;;;;4963678;28;20642;-71
2022/06/08 12:49:48;;;;;;;3.65;2.05;;;20.60;99.90;;;;;;4966613;28;20058;-72
2022/06/08 12:52:28;;;;;;;1.13;0.90;;;20.80;99.90;;;;;;4964655;28;20086;-72
2022/06/08 12:54:56;;;;;;;2.03;1.50;;;20.90;99.90;;;;;;4965898;28;20560;-70
2022/06/08 12:57:25;;;;;;;1.23;1.10;;;20.70;99.90;;;;;;4964626;28;20050;-69
2022/06/08 12:59:55;;;;;;;2.42;1.27;;;20.70;99.90;;;;;;4967613;28;20491;-70
2022/06/08 13:02:26;;;;;;;3.03;1.00;;;20.70;99.90;;;;;;4946741;28;20153;-69
2022/06/08 13:04:55;;;;;;;3.20;1.10;;;20.80;99.90;;;;;;4967036;28;20658;-70
2022/06/08 13:07:33;;;;;;;1.48;1.17;;;21.20;99.90;;;;;;4965616;28;20112;-71
2022/06/08 13:10:01;;;;;;;3.80;1.02;;;21.10;99.90;;;;;;4967561;28;20176;-69
2022/06/08 13:12:31;;;;;;;1.35;0.75;;;21.20;99.90;;;;;;4964802;28;20050;-71
2022/06/08 13:14:59;;;;;;;3.22;0.90;;;21.50;99.90;;;;;;4966194;28;20125;-75
2022/06/08 13:17:28;;;;;;;0.82;0.80;;;21.60;99.90;;;;;;4965195;28;20133;-73
2022/06/08 13:19:57;;;;;;;1.02;0.77;;;22.00;99.90;;;;;;4968277;28;20149;-74
2022/06/08 13:22:26;;;;;;;1.17;0.77;;;21.80;99.90;;;;;;4954096;28;20086;-71
2022/06/08 13:24:54;;;;;;;3.40;1.35;;;21.60;99.90;;;;;;4965397;28;20046;-70
2022/06/08 13:27:21;;;;;;;4.03;0.70;;;21.70;99.90;;;;;;4964196;28;20288;-73
2022/06/08 13:29:48;;;;;;;0.82;0.47;;;21.80;99.90;;;;;;4960672;28;20536;-72
2022/06/08 13:32:19;;;;;;;2.17;1.08;;;21.60;99.90;;;;;;4960136;28;20140;-72